Time;durP1;ratioP1;P1;durP2;ratioP2;P2;SDS_P1;SDS_P2;PMS_P1;PMS_P2;Temp;Humidity;BMP_temperature;BMP_pressure;BME280_temperature;BME280_humidity;BME280_pressure;Samples;Min_cycle;Max_cycle;Signal;HPM_P1;HPM_P2
2022/08/31 00:06:04;;;;;;;;;8.67;6.00;;;;;24.11;42.15;101325.03;5115398;27;45136;-65
2022/08/31 00:08:31;;;;;;;;;6.00;5.00;;;;;24.02;41.97;101298.84;5115558;27;45018;-65
2022/08/31 00:10:58;;;;;;;;;5.00;5.00;;;;;24.09;42.22;101313.25;5116041;27;45208;-65
2022/08/31 00:13:24;;;;;;;;;6.67;6.67;;;;;24.08;42.25;101315.06;5114405;27;45200;-65
2022/08/31 00:15:51;;;;;;;;;9.00;4.00;;;;;24.08;42.37;101312.34;5126368;27;45145;-65
2022/08/31 00:18:17;;;;;;;;;6.00;6.00;;;;;24.07;42.23;101312.34;5115596;27;45049;-64
2022/08/31 00:20:43;;;;;;;;;4.00;4.00;;;;;24.04;42.03;101317.88;5113017;27;45151;-65
2022/08/31 00:23:11;;;;;;;;;4.00;2.33;;;;;23.99;41.91;101297.97;5114364;27;45002;-64
2022/08/31 00:25:39;;;;;;;;;5.00;5.00;;;;;23.97;42.05;101308.91;5117753;27;45723;-65
2022/08/31 00:28:05;;;;;;;;;8.67;6.67;;;;;23.88;41.98;101292.75;5119228;27;45099;-65
2022/08/31 00:30:32;;;;;;;;;10.33;6.67;;;;;23.95;42.09;101308.06;5120435;27;45019;-65
2022/08/31 00:32:57;;;;;;;;;8.67;7.00;;;;;23.90;42.15;101299.94;5118923;27;45010;-65
2022/08/31 00:35:23;;;;;;;;;5.67;4.00;;;;;23.92;42.46;101306.31;5110185;27;45308;-65
2022/08/31 00:37:48;;;;;;;;;4.33;4.00;;;;;23.89;42.36;101308.16;5123351;27;45137;-64
2022/08/31 00:40:14;;;;;;;;;3.67;2.67;;;;;23.82;42.05;101309.19;5117377;27;45162;-65
2022/08/31 00:42:40;;;;;;;;;9.00;8.00;;;;;23.77;42.26;101305.66;5114397;27;45112;-64
2022/08/31 00:45:07;;;;;;;;;9.00;6.33;;;;;23.75;42.67;101305.69;5110668;27;45555;-65
2022/08/31 00:47:34;;;;;;;;;5.33;5.33;;;;;23.33;42.70;101229.25;5115759;27;45228;-64
2022/08/31 00:50:01;;;;;;;;;3.00;3.00;;;;;23.71;42.73;101304.88;5116472;27;45237;-64
2022/08/31 00:52:30;;;;;;;;;7.00;6.00;;;;;23.65;42.51;101296.78;5120788;27;45295;-64
2022/08/31 00:55:00;;;;;;;;;3.00;3.00;;;;;23.65;42.53;101309.53;5111229;27;45730;-65
2022/08/31 00:57:32;;;;;;;;;4.00;4.00;;;;;23.53;42.53;101295.19;5110974;27;45391;-65
2022/08/31 01:00:00;;;;;;;;;8.33;5.00;;;;;23.58;42.53;101306.03;5115401;27;45454;-64
2022/08/31 01:02:26;;;;;;;;;5.00;3.33;;;;;23.58;42.49;101314.22;5123812;27;45233;-65
2022/08/31 01:04:51;;;;;;;;;5.33;4.00;;;;;23.53;42.56;101316.13;5122061;27;45727;-65
2022/08/31 01:07:17;;;;;;;;;7.33;5.67;;;;;23.55;42.73;101314.25;5115568;27;44948;-64
2022/08/31 01:09:43;;;;;;;;;5.00;3.33;;;;;23.55;42.95;101317.00;5127184;27;44968;-64
2022/08/31 01:12:10;;;;;;;;;5.00;5.00;;;;;23.53;42.72;101316.13;5118781;27;45165;-65
2022/08/31 01:14:38;;;;;;;;;5.67;4.67;;;;;23.47;42.96;101316.22;5122014;27;45917;-65
2022/08/31 01:17:05;;;;;;;;;3.00;3.00;;;;;23.29;43.14;101291.06;5123069;27;44956;-65
2022/08/31 01:19:40;;;;;;;;;3.00;2.33;;;;;23.36;42.97;101303.69;5118578;27;45264;-65
2022/08/31 01:22:26;;;;;;;;;4.00;4.00;;;;;23.44;43.18;101319.00;5117609;27;45144;-65
2022/08/31 01:24:54;;;;;;;;;3.33;2.67;;;;;23.39;42.94;101308.19;5117520;27;45673;-64
2022/08/31 01:27:23;;;;;;;;;3.33;1.67;;;;;23.40;43.10;101320.91;5128877;27;46251;-64
2022/08/31 01:29:49;;;;;;;;;5.00;3.00;;;;;23.32;43.13;101318.28;5116656;27;45146;-64
2022/08/31 01:32:14;;;;;;;;;6.00;4.33;;;;;23.30;43.37;101311.09;5122062;27;45127;-65
2022/08/31 01:34:40;;;;;;;;;7.00;5.33;;;;;23.26;43.09;101317.50;5116895;27;45569;-64
2022/08/31 01:37:06;;;;;;;;;6.33;6.33;;;;;23.26;43.48;101321.13;5122992;27;45221;-65
2022/08/31 01:39:31;;;;;;;;;6.33;6.33;;;;;23.21;43.59;101319.41;5121220;27;45127;-64
2022/08/31 01:41:56;;;;;;;;;3.67;3.67;;;;;23.18;43.49;101328.53;5120592;27;45691;-66
2022/08/31 01:44:25;;;;;;;;;6.33;4.33;;;;;23.15;43.71;101328.59;5123874;27;46274;-64
2022/08/31 01:46:51;;;;;;;;;5.33;4.00;;;;;23.10;43.72;101328.69;5127951;27;45118;-65
2022/08/31 01:49:17;;;;;;;;;6.67;5.00;;;;;23.08;43.75;101322.34;5116954;27;45047;-65
2022/08/31 01:51:44;;;;;;;;;5.33;4.00;;;;;23.03;43.87;101323.31;5125479;27;45031;-65
2022/08/31 01:54:10;;;;;;;;;5.00;3.67;;;;;23.03;43.78;101326.03;5120510;27;45533;-65
2022/08/31 01:56:40;;;;;;;;;5.33;3.67;;;;;22.99;44.18;101319.72;5113285;27;44912;-65
2022/08/31 01:59:08;;;;;;;;;4.00;4.00;;;;;22.99;43.96;101320.63;5112468;27;45225;-66
2022/08/31 02:01:38;;;;;;;;;5.00;5.00;;;;;22.98;43.98;101327.03;5121028;27;45442;-64
2022/08/31 02:04:06;;;;;;;;;4.00;4.00;;;;;22.99;43.84;101327.91;5119864;27;45649;-64
2022/08/31 02:06:33;;;;;;;;;3.00;3.00;;;;;23.00;43.90;101332.44;5118486;27;45459;-65
2022/08/31 02:08:59;;;;;;;;;3.00;3.00;;;;;22.99;44.07;101342.41;5114739;27;45164;-65
2022/08/31 02:11:25;;;;;;;;;6.00;4.67;;;;;22.84;44.10;101317.25;5121013;27;45211;-64
2022/08/31 02:13:50;;;;;;;;;4.33;4.33;;;;;22.94;44.01;101335.25;5116950;27;46362;-65
2022/08/31 02:16:15;;;;;;;;;5.33;4.00;;;;;22.88;44.15;101328.06;5120726;27;45467;-65
2022/08/31 02:18:41;;;;;;;;;3.00;3.00;;;;;22.91;44.08;101327.13;5118706;27;45032;-65
2022/08/31 02:21:06;;;;;;;;;4.67;4.00;;;;;22.92;44.24;101338.00;5122757;27;45149;-66
2022/08/31 02:23:31;;;;;;;;;3.67;3.33;;;;;22.74;43.98;101314.66;5124938;27;47977;-65
2022/08/31 02:25:57;;;;;;;;;4.00;3.00;;;;;22.82;44.10;101328.19;5118494;27;45161;-65
2022/08/31 02:28:23;;;;;;;;;3.67;3.67;;;;;22.84;44.30;101339.94;5123651;27;45024;-65
2022/08/31 02:30:48;;;;;;;;;5.00;3.00;;;;;22.78;44.25;101342.75;5115325;27;44971;-64
2022/08/31 02:33:14;;;;;;;;;3.67;2.67;;;;;22.63;44.30;101322.09;5118651;27;45519;-65
2022/08/31 02:35:41;;;;;;;;;2.33;2.33;;;;;22.64;44.38;101332.97;5118296;27;45681;-64
2022/08/31 02:38:07;;;;;;;;;4.33;4.33;;;;;22.72;44.50;101341.03;5121352;27;45240;-65
2022/08/31 02:40:37;;;;;;;;;4.33;3.00;;;;;22.72;44.37;101334.66;5119539;27;45486;-66
2022/08/31 02:43:06;;;;;;;;;3.00;2.67;;;;;22.69;44.25;101338.34;5117184;27;45770;-64
2022/08/31 02:45:31;;;;;;;;;4.33;2.67;;;;;22.67;44.52;101342.00;5116887;27;45007;-65
2022/08/31 02:47:57;;;;;;;;;3.33;3.33;;;;;22.69;44.53;101348.34;5118912;27;45471;-64
2022/08/31 02:50:22;;;;;;;;;6.00;4.67;;;;;22.68;44.52;101343.81;5116268;27;45108;-66
2022/08/31 02:52:49;;;;;;;;;5.67;4.33;;;;;22.64;44.47;101348.41;5118649;27;45748;-65
2022/08/31 02:55:15;;;;;;;;;5.00;5.00;;;;;22.61;44.60;101340.28;5113242;27;44963;-64
2022/08/31 02:57:40;;;;;;;;;4.33;3.33;;;;;22.59;44.55;101350.31;5111869;27;45193;-65
2022/08/31 03:00:07;;;;;;;;;3.67;3.67;;;;;22.16;44.53;101286.41;5112492;27;45256;-66
2022/08/31 03:02:33;;;;;;;;;5.00;4.00;;;;;22.38;44.65;101321.53;5124796;27;45610;-65
2022/08/31 03:05:05;;;;;;;;;4.00;4.00;;;;;22.50;44.79;101347.69;5125374;27;45204;-65
2022/08/31 03:07:32;;;;;;;;;5.00;5.00;;;;;22.49;44.72;101351.31;5119928;27;45103;-65
2022/08/31 03:09:59;;;;;;;;;3.67;3.67;;;;;22.34;44.65;101327.94;5116772;27;45629;-65
2022/08/31 03:12:24;;;;;;;;;4.67;4.00;;;;;22.41;44.86;101349.63;5118293;27;45098;-64
2022/08/31 03:14:50;;;;;;;;;5.00;2.33;;;;;22.31;44.63;101336.16;5117819;27;45564;-64
2022/08/31 03:17:15;;;;;;;;;4.33;4.33;;;;;22.38;44.81;101359.66;5114288;27;45139;-64
2022/08/31 03:19:40;;;;;;;;;4.67;4.67;;;;;22.28;45.02;101345.22;5122051;27;45178;-65
2022/08/31 03:22:06;;;;;;;;;4.00;4.00;;;;;21.88;44.75;101278.56;5114971;27;62742;-65
2022/08/31 03:24:31;;;;;;;;;7.00;5.00;;;;;22.30;45.08;101350.69;5113795;27;45184;-65
2022/08/31 03:26:56;;;;;;;;;3.67;3.67;;;;;22.25;45.05;101348.88;5121927;27;53828;-65
2022/08/31 03:29:22;;;;;;;;;5.00;3.33;;;;;22.15;44.88;101329.97;5122547;27;45034;-65
2022/08/31 03:31:47;;;;;;;;;4.33;3.00;;;;;22.28;44.98;101356.09;5122641;27;47173;-65
2022/08/31 03:34:12;;;;;;;;;4.33;3.33;;;;;22.34;44.84;101366.03;5125591;27;44955;-65
2022/08/31 03:36:38;;;;;;;;;4.33;4.33;;;;;22.33;44.78;101362.44;5121657;27;45269;-65
2022/08/31 03:39:03;;;;;;;;;3.33;2.33;;;;;22.32;44.84;101366.06;5117177;27;45196;-65
2022/08/31 03:41:29;;;;;;;;;4.67;4.00;;;;;22.30;44.81;101370.63;5121831;27;56684;-66
2022/08/31 03:43:54;;;;;;;;;8.00;6.00;;;;;22.22;45.06;101357.09;5112792;27;45003;-65
2022/08/31 03:46:20;;;;;;;;;3.00;3.00;;;;;22.18;44.84;101358.03;5121740;27;45214;-67
2022/08/31 03:48:48;;;;;;;;;5.00;5.00;;;;;22.21;44.84;101360.72;5121353;27;45246;-64
2022/08/31 03:51:15;;;;;;;;;3.33;3.33;;;;;22.24;44.89;101362.50;5116475;27;45383;-65
2022/08/31 03:53:41;;;;;;;;;5.00;5.00;;;;;22.23;45.06;101369.78;5113078;27;45034;-65
2022/08/31 03:56:07;;;;;;;;;5.00;4.00;;;;;22.20;45.20;101367.06;5120278;27;45369;-64
2022/08/31 03:58:33;;;;;;;;;3.67;3.67;;;;;22.18;44.98;101365.31;5120441;27;45381;-65
2022/08/31 04:00:58;;;;;;;;;1.33;1.33;;;;;22.17;45.15;101368.94;5119927;27;45141;-65
2022/08/31 04:03:24;;;;;;;;;4.00;2.00;;;;;22.14;45.29;101375.34;5121092;27;45321;-66
2022/08/31 04:05:49;;;;;;;;;5.00;3.67;;;;;22.14;45.03;101372.63;5116434;27;45191;-66
2022/08/31 04:08:16;;;;;;;;;4.33;4.33;;;;;22.12;45.12;101374.44;5118764;27;45252;-65
2022/08/31 04:10:46;;;;;;;;;3.00;3.00;;;;;22.01;45.27;101352.81;5117151;27;45619;-65
2022/08/31 04:13:11;;;;;;;;;5.00;4.67;;;;;22.09;45.33;101369.03;5117029;27;45107;-65
2022/08/31 04:15:37;;;;;;;;;3.67;3.67;;;;;21.96;45.19;101353.75;5118138;27;45341;-65
2022/08/31 04:18:03;;;;;;;;;6.00;4.67;;;;;21.99;45.40;101361.88;5118718;27;44960;-66
2022/08/31 04:20:28;;;;;;;;;4.00;4.00;;;;;22.05;45.17;101365.44;5114374;27;45433;-65
2022/08/31 04:22:53;;;;;;;;;5.00;4.33;;;;;21.96;45.32;101349.22;5116603;27;45110;-65
2022/08/31 04:25:19;;;;;;;;;5.00;4.00;;;;;21.99;45.15;101368.25;5126707;27;44954;-66
2022/08/31 04:27:44;;;;;;;;;5.67;4.33;;;;;22.02;45.39;101376.34;5119545;27;45261;-65
2022/08/31 04:30:10;;;;;;;;;4.00;4.00;;;;;21.99;45.21;101376.41;5122318;27;45499;-66
2022/08/31 04:32:36;;;;;;;;;5.00;5.00;;;;;21.66;45.41;101321.44;5121817;27;45242;-66
2022/08/31 04:35:02;;;;;;;;;6.67;5.00;;;;;21.95;45.42;101380.06;5121168;27;45143;-65
2022/08/31 04:37:28;;;;;;;;;4.00;3.67;;;;;21.97;45.54;101374.63;5119733;27;45152;-65
2022/08/31 04:39:55;;;;;;;;;6.00;6.00;;;;;21.98;45.46;101376.44;5126539;27;45212;-65
2022/08/31 04:42:21;;;;;;;;;4.33;4.33;;;;;21.93;45.56;101367.38;5119148;27;45151;-66
2022/08/31 04:44:46;;;;;;;;;4.67;3.00;;;;;21.97;45.34;101371.91;5117486;27;45075;-66
2022/08/31 04:47:11;;;;;;;;;6.33;4.67;;;;;21.96;45.45;101378.25;5117198;27;45063;-66
2022/08/31 04:49:37;;;;;;;;;5.00;3.00;;;;;21.77;45.51;101343.06;5115650;27;45095;-65
2022/08/31 04:52:02;;;;;;;;;8.00;5.00;;;;;21.88;45.76;101371.06;5116205;27;45104;-67
2022/08/31 04:54:28;;;;;;;;;5.00;4.00;;;;;21.86;45.78;101367.47;5114933;27;45639;-65
2022/08/31 04:56:53;;;;;;;;;5.00;5.00;;;;;21.82;45.93;101372.97;5111526;27;45229;-65
2022/08/31 04:59:24;;;;;;;;;5.33;4.00;;;;;21.80;45.69;101361.19;5112641;27;45416;-65
2022/08/31 05:01:49;;;;;;;;;2.00;2.00;;;;;21.77;45.99;101353.97;5119754;27;45150;-64
2022/08/31 05:04:14;;;;;;;;;5.00;4.33;;;;;21.80;45.68;101372.06;5116730;27;45420;-65
2022/08/31 05:06:42;;;;;;;;;11.67;4.00;;;;;21.76;45.90;101351.25;5121196;27;45758;-64
2022/08/31 05:09:11;;;;;;;;;4.00;4.00;;;;;21.76;46.29;101373.91;5115471;27;46060;-65
2022/08/31 05:11:36;;;;;;;;;4.67;4.00;;;;;21.62;45.99;101340.53;5117875;27;45921;-65
2022/08/31 05:14:04;;;;;;;;;4.00;4.00;;;;;21.78;46.13;101369.38;5119501;27;45150;-64
2022/08/31 05:16:30;;;;;;;;;7.00;4.00;;;;;21.75;46.17;101377.56;5100613;27;45447;-67
2022/08/31 05:18:56;;;;;;;;;3.33;3.00;;;;;21.72;46.25;101370.31;5100144;27;46379;-64
2022/08/31 05:21:28;;;;;;;;;6.00;6.00;;;;;21.67;45.93;101369.47;5107295;27;45357;-66
2022/08/31 05:24:19;;;;;;;;;10.00;6.00;;;;;21.69;46.14;101378.50;5121486;27;44939;-66
2022/08/31 05:26:47;;;;;;;;;5.00;3.33;;;;;21.67;46.23;101372.19;5117582;27;46122;-65
2022/08/31 05:29:14;;;;;;;;;4.00;3.00;;;;;21.65;46.53;101367.69;5118322;27;46253;-66
2022/08/31 05:31:40;;;;;;;;;4.33;4.33;;;;;21.61;46.41;101369.50;5120697;27;45122;-66
2022/08/31 05:34:06;;;;;;;;;6.33;4.00;;;;;21.61;46.31;101376.78;5123351;27;45203;-65
2022/08/31 05:36:33;;;;;;;;;19.33;15.00;;;;;21.57;46.70;101375.91;5113106;27;45188;-66
2022/08/31 05:38:59;;;;;;;;;4.00;4.00;;;;;21.42;46.65;101359.72;5117156;27;46169;-65
2022/08/31 05:41:25;;;;;;;;;3.67;3.00;;;;;21.56;46.69;101378.66;5118771;27;45242;-64
2022/08/31 05:43:50;;;;;;;;;5.00;4.00;;;;;21.40;46.63;101351.56;5120772;27;45415;-66
2022/08/31 05:46:16;;;;;;;;;7.00;4.33;;;;;21.54;46.77;101375.94;5118118;27;45521;-65
2022/08/31 05:48:42;;;;;;;;;7.67;5.00;;;;;21.56;47.23;101381.38;5113169;27;45618;-66
2022/08/31 05:51:13;;;;;;;;;7.67;6.00;;;;;21.57;47.36;101378.63;5119852;27;45288;-63
2022/08/31 05:53:39;;;;;;;;;4.33;4.33;;;;;21.53;46.99;101368.69;5113563;27;45058;-65
2022/08/31 05:56:19;;;;;;;;;9.00;4.00;;;;;21.58;46.67;101387.69;5111736;27;45270;-65
2022/08/31 05:58:47;;;;;;;;;4.67;4.00;;;;;21.50;46.78;101374.19;5115859;27;45509;-64
2022/08/31 06:01:25;;;;;;;;;4.33;4.33;;;;;21.63;46.83;101383.09;5120651;27;45210;-65
2022/08/31 06:03:52;;;;;;;;;5.67;5.67;;;;;21.59;46.97;101386.78;5124857;27;45023;-66
2022/08/31 06:06:18;;;;;;;;;7.33;5.33;;;;;21.50;47.03;101371.47;5125250;27;45254;-65
2022/08/31 06:08:43;;;;;;;;;5.33;5.00;;;;;21.64;46.87;101387.63;5117039;27;45694;-65
2022/08/31 06:11:14;;;;;;;;;9.00;9.00;;;;;21.58;47.21;101364.13;5119714;27;45148;-65
2022/08/31 06:13:40;;;;;;;;;10.00;6.00;;;;;21.58;46.75;101371.38;5119063;27;45158;-66
2022/08/31 06:16:07;;;;;;;;;4.00;4.00;;;;;21.67;46.71;101387.59;5115372;27;45353;-66
2022/08/31 06:18:32;;;;;;;;;7.00;3.33;;;;;21.69;46.61;101381.22;5117108;27;45443;-65
2022/08/31 06:21:02;;;;;;;;;6.67;5.67;;;;;21.70;46.75;101391.19;5114554;27;44959;-66
2022/08/31 06:23:28;;;;;;;;;6.00;4.33;;;;;21.65;46.71;101375.84;5115359;27;45379;-66
2022/08/31 06:26:01;;;;;;;;;4.33;4.33;;;;;21.69;46.92;101385.78;5117963;27;45176;-67
2022/08/31 06:28:31;;;;;;;;;5.00;5.00;;;;;21.72;46.83;101388.47;5116287;27;45745;-66
2022/08/31 06:30:57;;;;;;;;;8.33;5.00;;;;;21.76;46.67;101392.06;5116605;27;45126;-65
2022/08/31 06:33:23;;;;;;;;;4.67;4.00;;;;;21.77;46.98;101397.47;5115381;27;45491;-66
2022/08/31 06:35:48;;;;;;;;;8.00;5.00;;;;;21.77;46.77;101392.03;5107019;27;45605;-67
2022/08/31 06:38:14;;;;;;;;;8.67;5.33;;;;;21.81;46.58;101398.34;5105403;27;45997;-65
2022/08/31 06:40:39;;;;;;;;;6.00;6.00;;;;;21.83;46.59;101397.44;5108246;27;45398;-67
2022/08/31 06:43:04;;;;;;;;;7.00;6.00;;;;;21.70;46.46;101373.97;5104481;27;45345;-67
2022/08/31 06:45:29;;;;;;;;;4.67;4.67;;;;;21.83;46.66;101396.53;5095941;27;49238;-67
2022/08/31 06:47:57;;;;;;;;;7.00;7.00;;;;;21.46;46.63;101328.84;5105993;27;46277;-65
2022/08/31 06:50:22;;;;;;;;;14.33;12.67;;;;;21.89;46.58;101393.72;5098342;27;45445;-65
2022/08/31 06:52:48;;;;;;;;;8.00;6.67;;;;;21.93;46.32;101395.53;5099657;27;45374;-66
2022/08/31 06:55:13;;;;;;;;;7.00;7.00;;;;;21.85;46.24;101384.69;5106192;27;46174;-66
2022/08/31 06:57:38;;;;;;;;;10.00;7.00;;;;;22.02;46.42;101403.56;5108403;27;45543;-68
2022/08/31 07:00:05;;;;;;;;;9.67;7.67;;;;;21.99;46.32;101394.53;5104813;27;53634;-66
2022/08/31 07:02:30;;;;;;;;;11.00;8.00;;;;;22.04;46.32;101396.31;5096153;27;45399;-68
2022/08/31 07:04:56;;;;;;;;;6.67;6.67;;;;;21.93;46.12;101378.25;5101735;27;45475;-66
2022/08/31 07:07:21;;;;;;;;;9.67;7.00;;;;;22.13;46.17;101408.00;5099966;27;51784;-67
2022/08/31 07:09:46;;;;;;;;;8.00;6.00;;;;;22.13;45.98;101403.47;5097285;27;56094;-65
2022/08/31 07:12:12;;;;;;;;;8.00;8.00;;;;;22.09;45.60;101396.22;5110072;27;45273;-67
2022/08/31 07:14:37;;;;;;;;;6.33;6.33;;;;;22.15;45.68;101404.34;5102010;27;45347;-65
2022/08/31 07:17:03;;;;;;;;;11.00;8.67;;;;;22.23;46.09;101407.88;5095017;27;45550;-66
2022/08/31 07:19:29;;;;;;;;;12.67;11.00;;;;;22.23;45.75;101401.53;5100409;27;45487;-65
2022/08/31 07:21:57;;;;;;;;;9.33;8.67;;;;;22.29;45.93;101409.69;5093025;27;45699;-67
2022/08/31 07:24:26;;;;;;;;;7.67;6.33;;;;;22.30;45.65;101403.28;5104642;27;45524;-67
2022/08/31 07:26:56;;;;;;;;;6.33;6.33;;;;;22.36;45.64;101396.91;5097832;27;46435;-67
2022/08/31 07:29:26;;;;;;;;;10.67;9.67;;;;;22.38;45.51;101393.22;5106138;27;45514;-67
2022/08/31 07:31:51;;;;;;;;;12.33;12.00;;;;;22.31;45.59;101375.16;5101616;27;45547;-65
2022/08/31 07:34:25;;;;;;;;;8.00;7.00;;;;;22.47;45.24;101402.19;5098553;27;45432;-66
2022/08/31 07:42:31;;;;;;;;;11.67;9.33;;;;;22.57;45.36;101404.78;5095132;27;46377;-67
2022/08/31 07:44:59;;;;;;;;;13.00;12.67;;;;;22.62;45.34;101402.91;5098115;27;45825;-66
2022/08/31 07:47:27;;;;;;;;;10.33;8.33;;;;;22.57;45.20;101393.91;5105997;27;47019;-68
2022/08/31 07:49:55;;;;;;;;;11.33;10.00;;;;;22.71;45.26;101407.31;5122923;27;45362;-65
2022/08/31 07:52:23;;;;;;;;;13.33;9.33;;;;;22.80;44.86;101401.75;5110799;27;45274;-67
2022/08/31 07:54:51;;;;;;;;;12.00;10.67;;;;;22.77;44.96;101396.34;5107461;27;45508;-67
2022/08/31 07:57:17;;;;;;;;;5.33;5.33;;;;;22.79;44.66;101385.44;5103481;27;45507;-65
2022/08/31 07:59:43;;;;;;;;;6.33;5.33;;;;;22.87;44.89;101397.13;5100968;27;45678;-66
2022/08/31 08:02:09;;;;;;;;;7.67;7.00;;;;;23.01;44.54;101405.09;5101252;27;46194;-67
2022/08/31 08:04:39;;;;;;;;;7.00;7.00;;;;;23.08;44.47;101403.19;5097483;27;45467;-65
2022/08/31 08:07:05;;;;;;;;;6.67;5.00;;;;;23.12;44.27;101407.69;5102096;27;45524;-66
2022/08/31 08:09:32;;;;;;;;;9.67;8.33;;;;;23.19;44.31;101406.66;5098361;27;45671;-67
2022/08/31 08:12:05;;;;;;;;;9.67;8.00;;;;;23.21;44.21;101406.66;5093449;27;45411;-65
2022/08/31 08:14:32;;;;;;;;;5.33;5.33;;;;;23.18;43.94;101392.16;5100162;27;45545;-65
2022/08/31 08:16:57;;;;;;;;;14.33;8.33;;;;;23.26;44.14;101382.94;5109096;27;45427;-66
2022/08/31 08:19:23;;;;;;;;;8.67;7.00;;;;;23.32;44.17;101394.63;5104324;27;53921;-66
2022/08/31 08:21:48;;;;;;;;;5.33;5.33;;;;;23.39;43.95;101389.09;5102455;27;46399;-67
2022/08/31 08:24:14;;;;;;;;;9.00;8.00;;;;;23.49;44.00;101382.53;5099693;27;45327;-70
2022/08/31 08:26:48;;;;;;;;;9.33;9.33;;;;;23.57;43.98;101376.97;5103771;27;45580;-70
2022/08/31 08:29:14;;;;;;;;;9.67;9.67;;;;;23.56;43.81;101373.34;5103863;27;45427;-69
2022/08/31 08:31:41;;;;;;;;;9.67;8.67;;;;;23.69;43.85;101376.75;5105888;27;45513;-71
2022/08/31 08:34:07;;;;;;;;;12.67;10.00;;;;;23.79;43.49;101378.41;5100996;27;45318;-69
2022/08/31 08:36:34;;;;;;;;;10.67;8.67;;;;;23.78;43.03;101367.50;5098915;27;46106;-68
2022/08/31 08:39:01;;;;;;;;;7.00;7.00;;;;;23.91;43.27;101370.00;5103459;27;45494;-70
2022/08/31 08:41:30;;;;;;;;;10.33;9.33;;;;;23.88;43.39;101358.25;5103438;27;45498;-70
2022/08/31 08:43:59;;;;;;;;;9.00;7.00;;;;;23.99;43.16;101369.88;5097636;27;45399;-71
2022/08/31 08:46:38;;;;;;;;;10.00;8.33;;;;;23.97;42.68;101352.59;5097875;27;45628;-70
2022/08/31 08:49:38;;;;;;;;;8.67;8.67;;;;;24.15;42.69;101370.44;5101587;27;45432;-71
2022/08/31 08:52:10;;;;;;;;;12.67;8.67;;;;;24.16;43.02;101355.88;5104226;27;45356;-71
2022/08/31 08:54:39;;;;;;;;;7.00;7.00;;;;;23.98;42.36;101324.38;5102834;27;45415;-70
2022/08/31 08:57:14;;;;;;;;;12.67;10.00;;;;;23.91;42.69;101296.31;5095102;27;45520;-68
2022/08/31 08:59:44;;;;;;;;;12.00;9.33;;;;;24.41;42.50;101366.28;5097545;27;45542;-75
2022/08/31 09:02:30;;;;;;;;;13.33;10.67;;;;;24.29;42.07;101348.31;5112237;27;45549;-75
2022/08/31 09:05:23;;;;;;;;;8.67;7.67;;;;;24.52;42.29;101364.22;5095657;27;45475;-74
2022/08/31 09:07:58;;;;;;;;;10.00;8.33;;;;;24.58;42.37;101360.47;5108872;27;46682;-73
2022/08/31 09:10:40;;;;;;;;;11.67;8.67;;;;;24.74;42.10;101374.69;5097767;27;45453;-71
2022/08/31 09:13:24;;;;;;;;;28.67;14.33;;;;;24.76;41.84;101368.25;5102509;27;45463;-68
2022/08/31 09:15:59;;;;;;;;;10.67;8.33;;;;;24.75;42.16;101363.75;5099813;27;45293;-72
2022/08/31 09:18:45;;;;;;;;;7.33;7.33;;;;;24.71;42.02;101336.50;5100093;27;45438;-69
2022/08/31 09:21:40;;;;;;;;;9.00;7.00;;;;;24.96;41.28;101365.09;5103694;27;45656;-75
2022/08/31 09:24:07;;;;;;;;;8.00;6.33;;;;;25.04;41.68;101359.41;5102935;27;45493;-70
2022/08/31 09:27:01;;;;;;;;;9.67;7.33;;;;;24.77;41.17;101300.84;5100853;27;45609;-74
2022/08/31 09:29:31;;;;;;;;;8.67;8.00;;;;;25.04;41.59;101347.59;5109163;27;45465;-70
2022/08/31 09:32:08;;;;;;;;;16.33;8.00;;;;;24.73;41.74;101267.25;5101782;27;46189;-71
2022/08/31 09:34:38;;;;;;;;;8.00;7.00;;;;;25.08;41.36;101306.47;5101279;27;45506;-71
2022/08/31 09:37:19;;;;;;;;;14.00;13.67;;;;;24.87;41.01;101245.03;5107902;27;45758;-72
2022/08/31 09:39:47;;;;;;;;;13.33;8.33;;;;;25.59;40.71;101335.28;5114361;27;45522;-71
2022/08/31 09:42:30;;;;;;;;;9.67;8.00;;;;;25.24;40.40;101259.56;5101940;27;45513;-72
2022/08/31 09:44:59;;;;;;;;;11.67;11.00;;;;;25.78;40.62;101332.94;5111710;27;45348;-68
2022/08/31 09:47:50;;;;;;;;;10.00;8.00;;;;;25.86;40.31;101340.94;5116964;27;44986;-71
2022/08/31 09:50:43;;;;;;;;;9.00;7.33;;;;;25.97;39.86;101335.16;5100001;27;46588;-72
2022/08/31 09:56:18;;;;;;;;;7.33;5.67;;;;;25.97;39.81;101326.97;5102898;27;45460;-68
2022/08/31 09:58:56;;;;;;;;;13.67;9.33;;;;;26.00;39.85;101327.75;5100115;27;45343;-71
2022/08/31 10:01:52;;;;;;;;;10.33;7.33;;;;;26.06;40.06;101323.97;5104647;27;46374;-72
2022/08/31 10:04:26;;;;;;;;;11.33;10.33;;;;;25.83;39.83;101273.47;5096429;27;45021;-70
2022/08/31 10:07:23;;;;;;;;;10.00;8.00;;;;;26.21;39.63;101314.41;5103036;27;45483;-72
2022/08/31 10:10:00;;;;;;;;;12.00;9.00;;;;;26.16;39.59;101298.09;5109620;27;45514;-70
2022/08/31 10:12:44;;;;;;;;;8.67;8.67;;;;;26.07;39.44;101262.78;5103341;27;46322;-76
2022/08/31 10:15:39;;;;;;;;;13.33;8.67;;;;;26.51;39.42;101301.59;5104496;27;45466;-70
2022/08/31 10:18:13;;;;;;;;;9.33;8.33;;;;;26.09;39.20;101215.22;5108076;27;46401;-72
2022/08/31 10:20:50;;;;;;;;;8.33;6.33;;;;;26.69;38.79;101307.50;5103362;27;45440;-71
2022/08/31 10:23:32;;;;;;;;;9.67;7.00;;;;;26.80;38.65;101291.59;5120519;27;45381;-72
2022/08/31 10:26:06;;;;;;;;;10.67;7.67;;;;;26.88;38.42;101289.50;5116645;27;45475;-73
2022/08/31 10:28:42;;;;;;;;;9.00;6.00;;;;;26.96;38.22;101292.88;5119136;27;45221;-71
2022/08/31 10:31:22;;;;;;;;;7.67;6.33;;;;;26.90;37.91;101287.59;5122765;27;45334;-74
2022/08/31 10:36:59;;;;;;;;;7.33;7.33;;;;;26.73;37.91;101232.41;5099182;27;45706;-76
2022/08/31 10:39:35;;;;;;;;;10.00;8.00;;;;;27.16;37.78;101294.06;5103840;27;45610;-69
2022/08/31 10:42:06;;;;;;;;;10.33;7.33;;;;;26.90;37.60;101240.97;5100193;27;45410;-71
2022/08/31 10:44:51;;;;;;;;;6.33;6.33;;;;;26.55;37.97;101177.25;5106297;27;46154;-73
2022/08/31 10:47:18;;;;;;;;;15.00;11.33;;;;;26.98;38.01;101238.88;5098307;27;45372;-73
2022/08/31 10:49:43;;;;;;;;;10.00;10.00;;;;;27.00;37.45;101222.38;5098556;27;45464;-70
2022/08/31 10:52:20;;;;;;;;;9.00;6.67;;;;;27.34;37.42;101290.72;5104010;27;45514;-70
2022/08/31 10:54:48;;;;;;;;;11.33;7.67;;;;;27.35;37.41;101273.28;5097874;27;46308;-71
2022/08/31 10:57:34;;;;;;;;;9.33;6.67;;;;;27.28;37.34;101279.03;5102545;27;45451;-73
2022/08/31 11:00:40;;;;;;;;;10.67;9.00;;;;;27.32;37.67;101277.97;5099360;27;45494;-71
2022/08/31 11:03:12;;;;;;;;;16.00;12.00;;;;;27.43;37.85;101273.00;5104914;27;45537;-68
2022/08/31 11:05:57;;;;;;;;;13.67;12.67;;;;;27.26;37.45;101237.03;5110695;27;45398;-75
2022/08/31 11:08:32;;;;;;;;;9.33;8.00;;;;;27.51;37.65;101276.38;5098663;27;45488;-74
2022/08/31 11:10:59;;;;;;;;;7.67;7.00;;;;;27.41;37.07;101246.59;5097991;27;45391;-70
2022/08/31 11:13:48;;;;;;;;;10.33;10.33;;;;;27.61;36.95;101276.06;5100680;27;45322;-73
2022/08/31 11:17:01;;;;;;;;;12.33;11.00;;;;;27.60;37.13;101260.53;5096354;27;46999;-72
2022/08/31 11:19:29;;;;;;;;;8.00;7.00;;;;;27.56;36.88;101276.22;5044539;28;45572;-73
2022/08/31 11:22:17;;;;;;;;;10.00;8.00;;;;;27.61;36.61;101270.56;5086025;27;45486;-69
2022/08/31 11:25:04;;;;;;;;;11.00;9.00;;;;;27.69;36.78;101277.56;5104276;27;45489;-71
2022/08/31 11:27:45;;;;;;;;;9.33;9.33;;;;;27.76;36.75;101273.63;5099185;27;46089;-71
2022/08/31 11:30:22;;;;;;;;;8.00;7.67;;;;;27.79;36.20;101277.25;5101867;27;45621;-70
2022/08/31 11:32:53;;;;;;;;;11.00;7.00;;;;;27.75;36.20;101246.22;5103591;27;45458;-73
2022/08/31 11:35:46;;;;;;;;;6.67;6.67;;;;;27.87;36.50;101266.88;5099422;27;45518;-71
2022/08/31 11:38:40;;;;;;;;;10.00;9.33;;;;;27.87;36.27;101269.59;5099552;27;46668;-69
2022/08/31 11:41:09;;;;;;;;;7.00;7.00;;;;;27.91;36.36;101269.41;5098741;27;45555;-71
2022/08/31 11:43:35;;;;;;;;;9.33;9.33;;;;;27.66;36.63;101208.16;5102569;27;45341;-69
2022/08/31 11:46:24;;;;;;;;;7.67;7.67;;;;;27.96;36.16;101255.53;5103906;27;45410;-72
2022/08/31 11:48:50;;;;;;;;;9.00;8.67;;;;;27.97;36.06;101251.84;5110885;27;47206;-70
2022/08/31 11:51:31;;;;;;;;;10.00;8.00;;;;;27.90;36.05;101248.41;5104709;27;45452;-72